Time,TemperatureF,DewpointF,PressureIn,WindDirection,WindDirectionDegrees,WindSpeedMPH,WindSpeedGustMPH,Humidity,HourlyPrecipIn,Conditions,Clouds,dailyrainin,SoftwareType,DateUTC
2013-07-11 00:01:00,89.4,65.0,29.92,South,169,1.0,7.0,44,0.00,,,0.00,weatherlink.com 1.10,2013-07-11 05:01:00,
2013-07-11 00:16:00,89.2,65.0,29.92,South,188,1.0,7.0,45,0.00,,,0.00,weatherlink.com 1.10,2013-07-11 05:16:00,
2013-07-11 00:31:00,88.8,65.0,29.92,SSW,207,6.0,6.0,46,0.00,,,0.00,weatherlink.com 1.10,2013-07-11 05:31:00,
2013-07-11 00:46:00,88.3,66.0,29.92,SSW,197,3.0,6.0,47,0.00,,,0.00,weatherlink.com 1.10,2013-07-11 05:46:00,
2013-07-11 01:01:00,88.0,65.0,29.92,SSE,157,2.0,5.0,47,0.00,,,0.00,weatherlink.com 1.10,2013-07-11 06:01:00,
2013-07-11 01:16:00,88.1,65.0,29.93,SW,225,4.0,7.0,47,0.00,,,0.00,weatherlink.com 1.10,2013-07-11 06:16:00,
2013-07-11 01:31:00,87.6,65.0,29.93,SSW,208,4.0,7.0,47,0.00,,,0.00,weatherlink.com 1.10,2013-07-11 06:31:00,
2013-07-11 01:46:00,87.0,65.0,29.94,SSW,200,3.0,7.0,48,0.00,,,0.00,weatherlink.com 1.10,2013-07-11 06:46:00,
2013-07-11 02:01:00,86.7,65.0,29.94,SSW,193,4.0,8.0,49,0.00,,,0.00,weatherlink.com 1.10,2013-07-11 07:01:00,
2013-07-11 02:16:00,86.2,66.0,29.94,SSW,195,4.0,9.0,51,0.00,,,0.00,weatherlink.com 1.10,2013-07-11 07:16:00,
2013-07-11 02:31:00,85.4,66.0,29.94,SW,226,8.0,11.0,53,0.00,,,0.00,weatherlink.com 1.10,2013-07-11 07:31:00,
2013-07-11 02:46:00,85.2,66.0,29.94,SW,231,4.0,9.0,53,0.00,,,0.00,weatherlink.com 1.10,2013-07-11 07:46:00,
2013-07-11 03:01:00,84.9,67.0,29.94,SW,228,8.0,9.0,55,0.00,,,0.00,weatherlink.com 1.10,2013-07-11 08:01:00,
2013-07-11 03:16:00,84.7,68.0,29.93,SW,224,6.0,9.0,57,0.00,,,0.00,weatherlink.com 1.10,2013-07-11 08:16:00,
2013-07-11 03:31:00,84.4,68.0,29.93,SW,217,7.0,7.0,58,0.00,,,0.00,weatherlink.com 1.10,2013-07-11 08:31:00,
2013-07-11 03:46:00,83.9,68.0,29.94,SSW,197,4.0,8.0,59,0.00,,,0.00,weatherlink.com 1.10,2013-07-11 08:46:00,
2013-07-11 04:01:00,83.2,68.0,29.93,SSW,198,5.0,6.0,61,0.00,,,0.00,weatherlink.com 1.10,2013-07-11 09:01:00,
2013-07-11 04:16:00,83.0,69.0,29.93,SSE,158,4.0,9.0,63,0.00,,,0.00,weatherlink.com 1.10,2013-07-11 09:16:00,
2013-07-11 04:31:00,82.7,70.0,29.93,South,179,6.0,9.0,65,0.00,,,0.00,weatherlink.com 1.10,2013-07-11 09:31:00,
2013-07-11 04:46:00,82.9,70.0,29.94,SW,214,4.0,8.0,65,0.00,,,0.00,weatherlink.com 1.10,2013-07-11 09:46:00,
2013-07-11 05:01:00,83.0,70.0,29.93,SSW,204,4.0,6.0,65,0.00,,,0.00,weatherlink.com 1.10,2013-07-11 10:01:00,
2013-07-11 05:16:00,82.9,70.0,29.93,South,188,3.0,7.0,66,0.00,,,0.00,weatherlink.com 1.10,2013-07-11 10:16:00,
2013-07-11 05:31:00,82.9,71.0,29.93,SSW,197,5.0,6.0,67,0.00,,,0.00,weatherlink.com 1.10,2013-07-11 10:31:00,
2013-07-11 05:46:00,82.5,70.0,29.93,SSW,210,4.0,7.0,67,0.00,,,0.00,weatherlink.com 1.10,2013-07-11 10:46:00,
2013-07-11 06:02:00,82.2,71.0,29.93,SSW,208,5.0,8.0,68,0.00,,,0.00,weatherlink.com 1.10,2013-07-11 11:02:00,
2013-07-11 06:17:00,82.0,71.0,29.93,SW,219,3.0,6.0,69,0.00,,,0.00,weatherlink.com 1.10,2013-07-11 11:17:00,
2013-07-11 06:32:00,82.1,71.0,29.93,SSW,198,4.0,7.0,69,0.00,,,0.00,weatherlink.com 1.10,2013-07-11 11:32:00,
2013-07-11 06:47:00,81.6,71.0,29.93,South,174,3.0,6.0,70,0.00,,,0.00,weatherlink.com 1.10,2013-07-11 11:47:00,
2013-07-11 07:02:00,82.0,71.0,29.94,SW,228,2.0,7.0,69,0.00,,,0.00,weatherlink.com 1.10,2013-07-11 12:02:00,
2013-07-11 07:17:00,82.4,71.0,29.94,SW,229,7.0,7.0,68,0.00,,,0.00,weatherlink.com 1.10,2013-07-11 12:17:00,
2013-07-11 07:32:00,82.9,71.0,29.93,SW,236,5.0,8.0,68,0.00,,,0.00,weatherlink.com 1.10,2013-07-11 12:32:00,
2013-07-11 07:47:00,83.7,71.0,29.94,SW,229,4.0,7.0,66,0.00,,,0.00,weatherlink.com 1.10,2013-07-11 12:47:00,
2013-07-11 08:02:00,84.4,71.0,29.94,SW,225,6.0,8.0,64,0.00,,,0.00,weatherlink.com 1.10,2013-07-11 13:02:00,
2013-07-11 08:17:00,85.5,71.0,29.94,SW,233,4.0,7.0,62,0.00,,,0.00,weatherlink.com 1.10,2013-07-11 13:17:00,
2013-07-11 08:32:00,86.3,71.0,29.95,SW,221,8.0,11.0,60,0.00,,,0.00,weatherlink.com 1.10,2013-07-11 13:32:00,
2013-07-11 08:47:00,87.0,71.0,29.95,SW,235,3.0,9.0,59,0.00,,,0.00,weatherlink.com 1.10,2013-07-11 13:47:00,
2013-07-11 09:02:00,87.3,71.0,29.95,SW,226,7.0,11.0,58,0.00,,,0.00,weatherlink.com 1.10,2013-07-11 14:02:00,
2013-07-11 09:17:00,88.4,71.0,29.95,SW,226,6.0,9.0,56,0.00,,,0.00,weatherlink.com 1.10,2013-07-11 14:17:00,
2013-07-11 09:32:00,89.4,71.0,29.95,West,274,6.0,9.0,54,0.00,,,0.00,weatherlink.com 1.10,2013-07-11 14:32:00,
2013-07-11 09:47:00,89.4,71.0,29.95,West,259,6.0,9.0,54,0.00,,,0.00,weatherlink.com 1.10,2013-07-11 14:47:00,
2013-07-11 10:02:00,89.9,71.0,29.95,NW,306,6.0,8.0,54,0.00,,,0.00,weatherlink.com 1.10,2013-07-11 15:02:00,
2013-07-11 10:17:00,90.5,71.0,29.95,SW,222,4.0,9.0,52,0.00,,,0.00,weatherlink.com 1.10,2013-07-11 15:17:00,
2013-07-11 10:32:00,91.4,71.0,29.95,WSW,255,2.0,8.0,51,0.00,,,0.00,weatherlink.com 1.10,2013-07-11 15:32:00,
2013-07-11 10:47:00,92.6,70.0,29.95,West,279,7.0,9.0,48,0.00,,,0.00,weatherlink.com 1.10,2013-07-11 15:47:00,
2013-07-11 11:02:00,93.1,71.0,29.95,WSW,254,2.0,9.0,48,0.00,,,0.00,weatherlink.com 1.10,2013-07-11 16:02:00,
2013-07-11 11:17:00,93.9,70.0,29.95,WNW,294,3.0,7.0,46,0.00,,,0.00,weatherlink.com 1.10,2013-07-11 16:17:00,
2013-07-11 11:47:00,95.2,69.0,29.95,WSW,257,3.0,7.0,43,0.00,,,0.00,weatherlink.com 1.10,2013-07-11 16:47:00,
2013-07-11 12:02:00,96.2,69.0,29.95,WSW,257,4.0,6.0,41,0.00,,,0.00,weatherlink.com 1.10,2013-07-11 17:02:00,
2013-07-11 12:17:00,96.9,70.0,29.94,WSW,249,3.0,6.0,42,0.00,,,0.00,weatherlink.com 1.10,2013-07-11 17:17:00,
2013-07-11 12:32:00,98.6,70.0,29.93,SE,138,2.0,6.0,40,0.00,,,0.00,weatherlink.com 1.10,2013-07-11 17:32:00,
2013-07-11 12:47:00,98.7,69.0,29.93,WNW,298,4.0,7.0,38,0.00,,,0.00,weatherlink.com 1.10,2013-07-11 17:47:00,
2013-07-11 13:32:00,100.6,68.0,29.92,SW,231,5.0,5.0,34,0.00,,,0.00,weatherlink.com 1.10,2013-07-11 18:32:00,
2013-07-11 13:47:00,100.6,68.0,29.91,SW,228,3.0,6.0,34,0.00,,,0.00,weatherlink.com 1.10,2013-07-11 18:47:00,
2013-07-11 14:03:00,99.3,67.0,29.91,West,262,1.0,7.0,35,0.00,,,0.00,weatherlink.com 1.10,2013-07-11 19:03:00,
2013-07-11 14:18:00,100.1,69.0,29.90,ENE,63,2.0,5.0,37,0.00,,,0.00,weatherlink.com 1.10,2013-07-11 19:18:00,
2013-07-11 14:33:00,101.5,66.0,29.88,South,177,2.0,8.0,31,0.00,,,0.00,weatherlink.com 1.10,2013-07-11 19:33:00,
2013-07-11 14:48:00,102.4,66.0,29.88,SSW,193,2.0,10.0,30,0.00,,,0.00,weatherlink.com 1.10,2013-07-11 19:48:00,
2013-07-11 15:03:00,102.3,65.0,29.88,SSE,150,5.0,9.0,30,0.00,,,0.00,weatherlink.com 1.10,2013-07-11 20:03:00,
2013-07-11 15:18:00,101.5,65.0,29.87,NNW,341,2.0,7.0,30,0.00,,,0.00,weatherlink.com 1.10,2013-07-11 20:18:00,
2013-07-11 15:33:00,102.2,65.0,29.86,WSW,255,1.0,8.0,30,0.00,,,0.00,weatherlink.com 1.10,2013-07-11 20:33:00,
2013-07-11 15:48:00,103.2,69.0,29.86,ENE,70,10.0,10.0,33,0.00,,,0.00,weatherlink.com 1.10,2013-07-11 20:48:00,
2013-07-11 16:03:00,101.4,68.0,29.86,SE,136,9.0,15.0,34,0.00,,,0.00,weatherlink.com 1.10,2013-07-11 21:03:00,
2013-07-11 16:18:00,98.9,69.0,29.86,ENE,76,6.0,15.0,38,0.00,,,0.00,weatherlink.com 1.10,2013-07-11 21:18:00,
2013-07-11 16:48:00,96.9,70.0,29.87,East,99,8.0,10.0,41,0.00,,,0.00,weatherlink.com 1.10,2013-07-11 21:48:00,
2013-07-11 17:03:00,95.0,69.0,29.87,SSW,203,7.0,15.0,43,0.00,,,0.00,weatherlink.com 1.10,2013-07-11 22:03:00,
2013-07-11 17:18:00,93.4,68.0,29.86,SSW,212,5.0,12.0,44,0.00,,,0.00,weatherlink.com 1.10,2013-07-11 22:18:00,
2013-07-11 17:33:00,93.9,67.0,29.86,SSW,200,6.0,8.0,41,0.00,,,0.00,weatherlink.com 1.10,2013-07-11 22:33:00,
2013-07-11 17:48:00,93.0,67.0,29.86,South,180,2.0,8.0,43,0.00,,,0.00,weatherlink.com 1.10,2013-07-11 22:48:00,
2013-07-11 18:03:00,93.1,67.0,29.85,SW,226,4.0,7.0,42,0.00,,,0.00,weatherlink.com 1.10,2013-07-11 23:03:00,
2013-07-11 18:18:00,93.0,70.0,29.89,SE,143,10.0,19.0,47,0.00,,,0.00,weatherlink.com 1.10,2013-07-11 23:18:00,
2013-07-11 18:33:00,90.1,70.0,29.88,SE,124,7.0,15.0,52,0.00,,,0.00,weatherlink.com 1.10,2013-07-11 23:33:00,
2013-07-11 19:33:00,88.6,70.0,29.88,SE,124,5.0,13.0,54,0.00,,,0.00,weatherlink.com 1.10,2013-07-12 00:33:00,
2013-07-11 19:48:00,88.3,70.0,29.89,SSW,209,10.0,12.0,54,0.00,,,0.00,weatherlink.com 1.10,2013-07-12 00:48:00,
2013-07-11 20:03:00,87.4,70.0,29.90,SSE,156,10.0,12.0,56,0.00,,,0.00,weatherlink.com 1.10,2013-07-12 01:03:00,
2013-07-11 20:33:00,86.7,70.0,29.90,SSW,209,5.0,7.0,57,0.00,,,0.00,weatherlink.com 1.10,2013-07-12 01:33:00,
2013-07-11 20:48:00,86.2,70.0,29.90,East,91,3.0,5.0,58,0.00,,,0.00,weatherlink.com 1.10,2013-07-12 01:48:00,
2013-07-11 21:03:00,86.0,70.0,29.89,SE,133,3.0,5.0,59,0.00,,,0.00,weatherlink.com 1.10,2013-07-12 02:03:00,
2013-07-11 21:33:00,85.2,70.0,29.88,SE,138,2.0,7.0,60,0.00,,,0.00,weatherlink.com 1.10,2013-07-12 02:33:00,
2013-07-11 21:48:00,84.7,70.0,29.89,South,188,4.0,5.0,61,0.00,,,0.00,weatherlink.com 1.10,2013-07-12 02:48:00,
2013-07-11 22:03:00,84.3,70.0,29.88,South,186,4.0,8.0,62,0.00,,,0.00,weatherlink.com 1.10,2013-07-12 03:03:00,
2013-07-11 22:18:00,84.5,70.0,29.89,South,180,4.0,8.0,62,0.00,,,0.00,weatherlink.com 1.10,2013-07-12 03:18:00,
2013-07-11 22:48:00,83.1,71.0,29.89,South,191,6.0,10.0,67,0.00,,,0.00,weatherlink.com 1.10,2013-07-12 03:48:00,
2013-07-11 23:03:00,82.8,71.0,29.89,SSE,157,3.0,8.0,68,0.00,,,0.00,weatherlink.com 1.10,2013-07-12 04:03:00,
2013-07-11 23:18:00,82.4,71.0,29.91,SSE,156,3.0,4.0,69,0.00,,,0.00,weatherlink.com 1.10,2013-07-12 04:18:00,
2013-07-11 23:33:00,82.3,72.0,29.90,ESE,108,1.0,5.0,70,0.00,,,0.00,weatherlink.com 1.10,2013-07-12 04:33:00,
2013-07-11 23:48:00,82.2,72.0,29.91,ESE,108,1.0,3.0,70,0.00,,,0.00,weatherlink.com 1.10,2013-07-12 04:48:00,